Rugby, ND

6:45 AM CDT on August 20, 2014 (GMT -0500)
KNDRUGBY2 | Change Station
CLOSE
Current Station
Personal Weather Station
Location: Rugby, ND
Elevation: 1545 ft
Nearby Weather Stations

Elev 1545 ft 48.36 °N, 99.99 °W | Updated 33 seconds ago

Scattered Clouds
Scattered Clouds
66.2 °F
Feels Like 66.2 °F
N
4.7
Wind Variable Wind from SE

Today
High -- | Low -- °F
--% Chance of Precip.
Yesterday
High -- | Low -- °F
Precip. -- in
6:40 AM 8:44 PM
Waning Crescent, 22% visible
Pressure 29.75 in
Visibility 7.0 miles
Clouds Scattered Clouds 7500 ft
Dew Point 62 °F
Humidity 86%
Rainfall 0.00 in
Snow Depth Not available.
UV 0 out of 12
Pollen 9.10 out of 12
Air Quality Not available.
Flu Activity Not available.
METAR K9D7 201135Z AUTO 12006KT 7SM SCT075 18/18 A2975 RMK AO2 PWINO PNO

More Conditions Fewer Conditions

Pressure 29.75 in
Visibility 7.0 miles
Clouds Scattered Clouds 7500 ft
Dew Point 62 °F
Humidity 86%
Rainfall 0.00 in
Snow Depth Not available.
UV 0 out of 12
Pollen 9.10 out of 12
Air Quality Not available.
Flu Activity Not available.
METAR K9D7 201135Z AUTO 12006KT 7SM SCT075 18/18 A2975 RMK AO2 PWINO PNO

More Conditions Fewer Conditions

10-Day Weather Forecast

Almanac

Astronomy

Aug. 20, 2014 Rise Set
Actual Time 6:40 AM CDT 8:44 PM CDT
Civil Twilight 6:07 AM CDT 9:18 PM CDT
Nautical Twilight 5:25 AM CDT 10:00 PM CDT
Astronomical Twilight 4:37 AM CDT 10:47 PM CDT
Moon 2:13 AM CDT 5:39 PM CDT
Length of Visible Light 15h 11m
Length of Day
14h 03m
Tomorrow will be 3m 17s shorter.
Waning Crescent, 22% of the Moon is Illuminated
Today
Waning Crescent
Aug 25
New
Sep 2
First Quarter
Sep 8
Full
Sep 15
Last Quarter

Today's Extremes

State Highs State Lows

Community

WunderPhotos

Upload Photos

1,745,611 photos uploaded!

WunderBlogs® & News

By Dr. Jeff Masters
Director of Meteorology, Weather Underground
By Kari Strenfel
Meteorologist, Weather Underground
By Christopher C. Burt
Weather Historian, Weather Underground
August 20, 2014
August 20, 2014
August 20, 2014

Nearby

Snow Depth

Station Depth Elevation
No new snow has been reported.

Earthquake Activity

City Distance Mag. Time & Date
No recent earthquake activity has been reported nearby.
Minimum magnitude displayed is 2.5.

Coastal Water Temperatures

Place Temperature
No Stations Reporting

Nearby Weather Stations